createdAt,value
2022-10-30T00:01:24.397Z,99.90
2022-10-30T00:03:54.445Z,99.90
2022-10-30T00:06:21.386Z,99.90
2022-10-30T00:08:51.415Z,99.90
2022-10-30T00:11:21.810Z,99.90
2022-10-30T00:13:51.711Z,99.90
2022-10-30T00:16:21.691Z,99.90
2022-10-30T00:18:51.691Z,99.90
2022-10-30T00:21:20.797Z,99.90
2022-10-30T00:23:52.064Z,99.90
2022-10-30T00:26:22.563Z,99.90
2022-10-30T00:28:52.187Z,99.90
2022-10-30T00:31:21.258Z,99.90
2022-10-30T00:33:55.909Z,99.90
2022-10-30T00:36:25.850Z,99.90
2022-10-30T00:38:55.825Z,99.90
2022-10-30T00:41:24.898Z,99.90
2022-10-30T00:43:53.386Z,99.90
2022-10-30T00:46:40.936Z,99.90
2022-10-30T00:49:16.716Z,99.90
2022-10-30T00:51:48.598Z,99.90
2022-10-30T00:54:18.062Z,99.90
2022-10-30T00:56:50.320Z,99.90
2022-10-30T00:59:24.301Z,99.90
2022-10-30T01:01:54.260Z,99.90
2022-10-30T01:04:29.132Z,99.90
2022-10-30T01:07:05.714Z,99.90
2022-10-30T01:09:32.919Z,99.90
2022-10-30T01:12:02.879Z,99.90
2022-10-30T01:14:36.291Z,99.90
2022-10-30T01:17:18.377Z,99.90
2022-10-30T01:20:19.405Z,99.90
2022-10-30T01:23:06.567Z,99.90
2022-10-30T01:26:00.253Z,99.90
2022-10-30T01:28:51.879Z,99.90
2022-10-30T01:31:28.760Z,99.90
2022-10-30T01:34:16.058Z,99.90
2022-10-30T01:37:04.068Z,99.90
2022-10-30T01:39:40.230Z,99.90
2022-10-30T01:42:11.051Z,99.90
2022-10-30T01:44:41.325Z,99.90
2022-10-30T01:47:34.453Z,99.90
2022-10-30T01:50:31.653Z,99.90
2022-10-30T01:53:36.124Z,99.90
2022-10-30T01:56:22.915Z,99.90
2022-10-30T01:59:30.333Z,99.90
2022-10-30T02:01:58.597Z,99.90
2022-10-30T02:04:29.392Z,99.90
2022-10-30T02:06:59.471Z,99.90
2022-10-30T02:09:28.773Z,99.90
2022-10-30T02:11:59.732Z,99.90
2022-10-30T02:14:34.009Z,99.90
2022-10-30T02:17:06.982Z,99.90
2022-10-30T02:19:37.079Z,99.90
2022-10-30T02:22:06.250Z,99.90
2022-10-30T02:24:35.682Z,99.90
2022-10-30T02:27:02.906Z,99.90
2022-10-30T02:29:32.863Z,99.90
2022-10-30T02:32:02.963Z,99.90
2022-10-30T02:34:32.996Z,99.90
2022-10-30T02:37:03.384Z,99.90
2022-10-30T02:39:30.344Z,99.90
2022-10-30T02:42:02.119Z,99.90
2022-10-30T02:44:32.073Z,99.90
2022-10-30T02:46:59.097Z,99.90
2022-10-30T02:49:29.091Z,99.90
2022-10-30T02:51:56.994Z,99.90
2022-10-30T02:54:27.101Z,99.90
2022-10-30T02:56:57.069Z,99.90
2022-10-30T02:59:48.857Z,99.90
2022-10-30T03:02:19.137Z,99.90
2022-10-30T03:04:45.999Z,99.90
2022-10-30T03:07:13.911Z,99.90
2022-10-30T03:09:44.024Z,99.90
2022-10-30T03:12:11.978Z,99.90
2022-10-30T03:14:41.858Z,99.90
2022-10-30T03:17:10.921Z,99.90
2022-10-30T03:19:43.639Z,99.90
2022-10-30T03:22:12.609Z,99.90
2022-10-30T03:24:42.822Z,99.90
2022-10-30T03:27:09.797Z,99.90
2022-10-30T03:29:39.783Z,99.90
2022-10-30T03:32:10.920Z,99.90
2022-10-30T03:34:38.914Z,99.90
2022-10-30T03:37:08.959Z,99.90
2022-10-30T03:39:36.916Z,99.90
2022-10-30T03:42:06.028Z,99.90
2022-10-30T03:44:35.018Z,99.90
2022-10-30T03:47:05.099Z,99.90
2022-10-30T03:49:34.079Z,99.90
2022-10-30T03:52:04.163Z,99.90
2022-10-30T03:54:34.165Z,99.90
2022-10-30T03:57:19.944Z,99.90
2022-10-30T03:59:48.852Z,99.90
2022-10-30T04:02:16.896Z,99.90
2022-10-30T04:04:46.964Z,99.90
2022-10-30T04:07:13.916Z,99.90
2022-10-30T04:09:40.841Z,99.90
2022-10-30T04:12:08.754Z,99.90
2022-10-30T04:14:37.749Z,99.90
2022-10-30T04:17:06.739Z,99.90
2022-10-30T04:19:34.722Z,99.90
2022-10-30T04:22:03.690Z,99.90
2022-10-30T04:24:33.797Z,99.90
2022-10-30T04:27:00.753Z,99.90
2022-10-30T04:29:33.782Z,99.90
2022-10-30T04:34:32.659Z,99.90
2022-10-30T04:37:00.580Z,99.90
2022-10-30T04:39:30.593Z,99.90
2022-10-30T04:41:58.521Z,99.90
2022-10-30T04:44:28.486Z,99.90
2022-10-30T04:46:57.555Z,99.90
2022-10-30T04:49:27.486Z,99.90
2022-10-30T04:51:57.585Z,99.90
2022-10-30T04:54:28.811Z,99.90
2022-10-30T04:56:58.781Z,99.90
2022-10-30T04:59:28.717Z,99.90
2022-10-30T05:01:56.816Z,99.90
2022-10-30T05:04:26.960Z,99.90
2022-10-30T05:06:54.893Z,99.90
2022-10-30T05:09:24.947Z,99.90
2022-10-30T05:11:59.918Z,99.90
2022-10-30T05:14:31.884Z,99.90
2022-10-30T05:17:00.086Z,99.90
2022-10-30T05:19:29.021Z,99.90
2022-10-30T05:21:59.098Z,99.90
2022-10-30T05:24:29.083Z,99.90
2022-10-30T05:26:59.314Z,99.90
2022-10-30T05:29:26.212Z,99.90
2022-10-30T05:31:54.146Z,99.90
2022-10-30T05:34:22.098Z,99.90
2022-10-30T05:36:52.099Z,99.90
2022-10-30T05:39:20.097Z,99.90
2022-10-30T05:41:50.127Z,99.90
2022-10-30T05:44:29.143Z,99.90
2022-10-30T05:47:08.063Z,99.90
2022-10-30T05:49:36.139Z,99.90
2022-10-30T05:52:03.099Z,99.90
2022-10-30T05:54:32.619Z,99.90
2022-10-30T05:57:01.604Z,99.90
2022-10-30T05:59:29.525Z,99.90
2022-10-30T06:01:59.582Z,99.90
2022-10-30T06:04:29.551Z,99.90
2022-10-30T06:07:10.007Z,99.90
2022-10-30T06:09:40.032Z,99.90
2022-10-30T06:12:10.051Z,99.90
2022-10-30T06:14:37.908Z,99.90
2022-10-30T06:17:08.026Z,99.90
2022-10-30T06:19:37.910Z,99.90
2022-10-30T06:22:06.865Z,99.90
2022-10-30T06:24:34.857Z,99.90
2022-10-30T06:27:04.832Z,99.90
2022-10-30T06:29:37.818Z,99.90
2022-10-30T06:32:06.911Z,99.90
2022-10-30T06:34:37.243Z,99.90
2022-10-30T06:37:06.279Z,99.90
2022-10-30T06:39:36.377Z,99.90
2022-10-30T06:42:06.393Z,99.90
2022-10-30T06:44:35.451Z,99.90
2022-10-30T06:47:04.399Z,99.90
2022-10-30T06:49:34.432Z,99.90
2022-10-30T06:52:04.548Z,99.90
2022-10-30T06:54:34.636Z,99.90
2022-10-30T06:57:04.706Z,99.90
2022-10-30T06:59:32.797Z,99.90
2022-10-30T07:02:04.413Z,99.90
2022-10-30T07:04:40.897Z,99.90
2022-10-30T07:07:12.401Z,99.90
2022-10-30T07:09:42.543Z,99.90
2022-10-30T07:12:12.760Z,99.90
2022-10-30T07:14:40.947Z,99.90
2022-10-30T07:17:11.353Z,99.90
2022-10-30T07:19:41.959Z,99.90
2022-10-30T07:22:12.002Z,99.90
2022-10-30T07:24:39.971Z,99.90
2022-10-30T07:27:16.313Z,99.90
2022-10-30T07:29:43.317Z,99.90
2022-10-30T07:32:14.267Z,99.90
2022-10-30T07:34:44.341Z,99.90
2022-10-30T07:37:14.356Z,99.90
2022-10-30T07:39:43.350Z,99.90
2022-10-30T07:42:11.271Z,99.90
2022-10-30T07:44:40.214Z,99.90
2022-10-30T07:47:09.150Z,99.90
2022-10-30T07:49:38.213Z,99.90
2022-10-30T07:52:16.230Z,99.90
2022-10-30T07:54:46.485Z,99.90
2022-10-30T07:57:13.444Z,99.90
2022-10-30T07:59:42.384Z,99.90
2022-10-30T08:02:12.461Z,99.90
2022-10-30T08:04:42.667Z,99.90
2022-10-30T08:07:09.638Z,99.90
2022-10-30T08:09:39.655Z,99.90
2022-10-30T08:12:07.114Z,99.90
2022-10-30T08:14:36.124Z,99.90
2022-10-30T08:17:05.267Z,99.90
2022-10-30T08:19:32.240Z,99.90
2022-10-30T08:22:02.217Z,99.90
2022-10-30T08:24:32.459Z,99.90
2022-10-30T08:27:02.687Z,99.90
2022-10-30T08:29:31.032Z,99.90
2022-10-30T08:32:15.267Z,99.90
2022-10-30T08:34:44.199Z,99.90
2022-10-30T08:37:12.846Z,99.90
2022-10-30T08:39:42.871Z,99.90
2022-10-30T08:42:12.945Z,99.90
2022-10-30T08:44:39.794Z,99.90
2022-10-30T08:47:07.816Z,99.90
2022-10-30T08:49:40.704Z,99.90
2022-10-30T08:52:11.658Z,99.90
2022-10-30T08:54:41.676Z,99.90
2022-10-30T08:57:11.688Z,99.90
2022-10-30T08:59:41.576Z,99.90
2022-10-30T09:02:10.694Z,99.90
2022-10-30T09:04:43.723Z,99.90
2022-10-30T09:07:12.967Z,99.90
2022-10-30T09:09:40.180Z,98.80
2022-10-30T09:12:09.119Z,98.20
2022-10-30T09:14:35.992Z,97.40
2022-10-30T09:17:06.054Z,97.70
2022-10-30T09:19:34.076Z,97.80
2022-10-30T09:22:02.096Z,97.80
2022-10-30T09:24:28.993Z,97.80
2022-10-30T09:26:56.262Z,98.10
2022-10-30T09:29:26.532Z,98.50
2022-10-30T09:31:55.525Z,99.30
2022-10-30T09:34:25.556Z,99.20
2022-10-30T09:36:52.604Z,99.50
2022-10-30T09:39:19.663Z,99.30
2022-10-30T09:42:11.160Z,98.70
2022-10-30T09:45:27.448Z,99.20
2022-10-30T09:48:43.338Z,99.60
2022-10-30T09:51:18.251Z,99.80
2022-10-30T09:54:09.199Z,99.90
2022-10-30T09:57:02.652Z,99.90
2022-10-30T10:00:10.487Z,99.90
2022-10-30T10:02:53.001Z,99.90
2022-10-30T10:05:25.860Z,99.50
2022-10-30T10:08:04.093Z,99.60
2022-10-30T10:10:41.019Z,99.90
2022-10-30T10:13:23.715Z,99.90
2022-10-30T10:15:59.077Z,99.90
2022-10-30T10:18:57.454Z,99.90
2022-10-30T10:21:31.699Z,99.90
2022-10-30T10:24:02.519Z,99.90
2022-10-30T10:26:52.086Z,99.90
2022-10-30T10:29:43.722Z,99.90
2022-10-30T10:32:48.226Z,99.90
2022-10-30T10:35:42.519Z,99.90
2022-10-30T10:38:15.398Z,99.90
2022-10-30T10:41:02.719Z,99.90
2022-10-30T10:43:47.418Z,99.90
2022-10-30T10:47:01.762Z,99.90
2022-10-30T10:49:39.183Z,99.90
2022-10-30T10:52:16.371Z,99.90
2022-10-30T10:54:50.657Z,99.90
2022-10-30T10:57:32.746Z,99.90
2022-10-30T11:00:07.488Z,99.90
2022-10-30T11:02:44.945Z,99.90
2022-10-30T11:05:30.620Z,99.90
2022-10-30T11:08:32.277Z,99.90
2022-10-30T11:11:02.596Z,99.90
2022-10-30T11:13:37.370Z,99.90
2022-10-30T11:16:21.681Z,99.90
2022-10-30T11:18:54.631Z,99.90
2022-10-30T11:21:26.363Z,99.90
2022-10-30T11:23:56.644Z,99.90
2022-10-30T11:26:24.554Z,99.90
2022-10-30T11:29:10.145Z,99.90
2022-10-30T11:31:43.146Z,99.90
2022-10-30T11:34:18.129Z,99.90
2022-10-30T11:36:46.325Z,99.90
2022-10-30T11:39:26.428Z,99.90
2022-10-30T11:42:16.417Z,99.90
2022-10-30T11:44:51.421Z,99.90
2022-10-30T11:47:36.417Z,99.90
2022-10-30T11:50:15.222Z,99.90
2022-10-30T11:52:45.547Z,99.90
2022-10-30T11:55:23.348Z,99.90
2022-10-30T11:57:55.305Z,99.90
2022-10-30T12:00:28.460Z,99.90
2022-10-30T12:03:01.126Z,99.90
2022-10-30T12:05:39.424Z,99.90
2022-10-30T12:08:10.477Z,99.90
2022-10-30T12:11:00.636Z,99.90
2022-10-30T12:13:36.827Z,99.90
2022-10-30T12:16:18.700Z,99.90
2022-10-30T12:18:58.427Z,99.90
2022-10-30T12:21:31.383Z,99.90
2022-10-30T12:24:07.139Z,99.90
2022-10-30T12:26:38.089Z,99.90
2022-10-30T12:29:13.871Z,99.90
2022-10-30T12:31:55.839Z,99.90
2022-10-30T12:34:27.099Z,99.90
2022-10-30T12:37:00.627Z,99.90
2022-10-30T12:39:36.968Z,99.90
2022-10-30T12:42:13.622Z,99.90
2022-10-30T12:44:51.647Z,99.90
2022-10-30T12:47:34.877Z,99.90
2022-10-30T12:50:27.337Z,99.90
2022-10-30T12:53:22.555Z,99.90
2022-10-30T12:56:00.297Z,99.90
2022-10-30T12:59:09.423Z,99.90
2022-10-30T13:01:48.053Z,99.90
2022-10-30T13:04:29.162Z,99.90
2022-10-30T13:07:11.244Z,99.90
2022-10-30T13:10:37.079Z,99.90
2022-10-30T13:13:33.581Z,99.90
2022-10-30T13:16:11.518Z,99.90
2022-10-30T13:18:38.559Z,99.90
2022-10-30T13:21:11.614Z,99.90
2022-10-30T13:24:00.578Z,99.90
2022-10-30T13:26:55.363Z,99.90
2022-10-30T13:29:43.836Z,99.90
2022-10-30T13:32:28.834Z,99.90
2022-10-30T13:35:29.147Z,99.90
2022-10-30T13:38:20.658Z,99.90
2022-10-30T13:40:55.079Z,99.90
2022-10-30T13:43:30.917Z,99.90
2022-10-30T13:46:36.124Z,99.90
2022-10-30T13:49:14.733Z,99.90
2022-10-30T13:52:06.277Z,99.90
2022-10-30T13:55:00.759Z,99.90
2022-10-30T13:57:41.502Z,99.90
2022-10-30T14:00:21.971Z,99.90
2022-10-30T14:02:49.267Z,99.90
2022-10-30T14:05:30.995Z,99.90
2022-10-30T14:08:22.638Z,99.90
2022-10-30T14:10:57.515Z,99.90
2022-10-30T14:13:47.975Z,99.90
2022-10-30T14:16:42.889Z,99.90
2022-10-30T14:19:14.644Z,99.90
2022-10-30T14:21:44.395Z,99.90
2022-10-30T14:24:16.369Z,99.90
2022-10-30T14:26:51.719Z,99.90
2022-10-30T14:29:35.651Z,99.90
2022-10-30T14:32:18.277Z,99.90
2022-10-30T14:34:51.344Z,99.90
2022-10-30T14:37:19.341Z,99.90
2022-10-30T14:39:46.895Z,99.90
2022-10-30T14:42:24.973Z,99.90
2022-10-30T14:45:08.638Z,99.90
2022-10-30T14:47:54.130Z,99.90
2022-10-30T14:50:27.066Z,99.90
2022-10-30T14:53:34.471Z,99.90
2022-10-30T14:58:45.327Z,99.90
2022-10-30T15:01:34.222Z,99.90
2022-10-30T15:04:36.407Z,99.90
2022-10-30T15:07:21.922Z,99.90
2022-10-30T15:09:53.328Z,99.90
2022-10-30T15:14:58.664Z,99.90
2022-10-30T15:17:46.090Z,99.90
2022-10-30T15:20:21.143Z,99.90
2022-10-30T15:22:55.913Z,99.90
2022-10-30T15:25:27.127Z,99.90
2022-10-30T15:27:57.585Z,99.90
2022-10-30T15:30:30.866Z,99.90
2022-10-30T15:33:00.102Z,99.90
2022-10-30T15:35:29.303Z,99.90
2022-10-30T15:38:02.786Z,99.90
2022-10-30T15:40:31.913Z,99.90
2022-10-30T15:43:05.026Z,99.90
2022-10-30T15:45:50.377Z,99.90
2022-10-30T15:48:25.445Z,99.90
2022-10-30T15:51:02.977Z,99.90
2022-10-30T15:53:44.000Z,99.90
2022-10-30T15:56:19.960Z,99.90
2022-10-30T15:59:06.831Z,99.90
2022-10-30T16:01:43.265Z,99.90
2022-10-30T16:04:23.559Z,99.90
2022-10-30T16:06:54.963Z,99.90
2022-10-30T16:09:25.650Z,99.90
2022-10-30T16:11:57.430Z,99.90
2022-10-30T16:14:28.808Z,99.90
2022-10-30T16:17:00.524Z,99.90
2022-10-30T16:19:30.741Z,99.90
2022-10-30T16:21:59.554Z,99.90
2022-10-30T16:24:34.873Z,99.90
2022-10-30T16:27:07.950Z,99.90
2022-10-30T16:29:35.855Z,99.90
2022-10-30T16:32:03.290Z,99.90
2022-10-30T16:34:37.642Z,99.90
2022-10-30T16:37:06.139Z,99.90
2022-10-30T16:39:35.054Z,99.90
2022-10-30T16:42:02.442Z,99.90
2022-10-30T16:44:31.975Z,99.90
2022-10-30T16:47:16.617Z,99.90
2022-10-30T16:49:57.151Z,99.90
2022-10-30T16:52:35.685Z,99.90
2022-10-30T16:55:23.942Z,99.90
2022-10-30T16:57:57.474Z,99.90
2022-10-30T17:00:27.768Z,99.90
2022-10-30T17:02:58.422Z,99.90
2022-10-30T17:05:33.969Z,99.90
2022-10-30T17:08:04.505Z,99.90
2022-10-30T17:10:53.117Z,99.90
2022-10-30T17:13:38.526Z,99.90
2022-10-30T17:16:25.563Z,99.90
2022-10-30T17:18:55.002Z,99.90
2022-10-30T17:21:40.448Z,99.90
2022-10-30T17:24:20.675Z,99.90
2022-10-30T17:26:59.603Z,99.90
2022-10-30T17:29:42.079Z,99.90
2022-10-30T17:32:28.186Z,99.90
2022-10-30T17:35:02.550Z,99.90
2022-10-30T17:37:29.888Z,99.90
2022-10-30T17:39:57.122Z,99.90
2022-10-30T17:42:24.178Z,99.90
2022-10-30T17:44:52.133Z,99.90
2022-10-30T17:47:20.538Z,99.90
2022-10-30T17:49:49.626Z,99.90
2022-10-30T17:52:19.755Z,99.90
2022-10-30T17:54:46.634Z,99.90
2022-10-30T17:57:15.302Z,99.90
2022-10-30T17:59:43.687Z,99.90
2022-10-30T18:02:19.247Z,99.90
2022-10-30T18:04:47.788Z,99.90
2022-10-30T18:07:17.214Z,99.90
2022-10-30T18:09:45.553Z,99.90
2022-10-30T18:12:17.724Z,99.90
2022-10-30T18:14:45.736Z,99.90
2022-10-30T18:17:12.723Z,99.90
2022-10-30T18:19:39.761Z,99.90
2022-10-30T18:22:06.746Z,99.90
2022-10-30T18:24:33.681Z,99.90
2022-10-30T18:27:00.583Z,99.90
2022-10-30T18:29:27.486Z,99.90
2022-10-30T18:31:54.504Z,99.90
2022-10-30T18:34:22.414Z,99.90
2022-10-30T18:36:50.032Z,99.90
2022-10-30T18:39:20.268Z,99.90
2022-10-30T18:41:49.599Z,99.90
2022-10-30T18:44:19.321Z,99.90
2022-10-30T18:46:49.661Z,99.90
2022-10-30T18:49:24.543Z,99.90
2022-10-30T18:51:51.873Z,99.90
2022-10-30T18:54:21.898Z,99.90
2022-10-30T18:56:51.868Z,99.90
2022-10-30T18:59:20.862Z,99.90
2022-10-30T19:01:48.972Z,99.90
2022-10-30T19:04:21.712Z,99.90
2022-10-30T19:06:49.408Z,99.90
2022-10-30T19:09:19.570Z,99.90
2022-10-30T19:11:49.641Z,99.90
2022-10-30T19:14:19.996Z,99.90
2022-10-30T19:16:47.026Z,99.90
2022-10-30T19:19:15.127Z,99.90
2022-10-30T19:21:44.192Z,99.90
2022-10-30T19:24:17.952Z,99.90
2022-10-30T19:26:45.935Z,99.90
2022-10-30T19:29:14.937Z,99.90
2022-10-30T19:31:45.003Z,99.90
2022-10-30T19:34:15.069Z,99.90
2022-10-30T19:36:42.966Z,99.90
2022-10-30T19:39:18.898Z,99.90
2022-10-30T19:41:49.436Z,99.90
2022-10-30T19:44:17.439Z,99.90
2022-10-30T19:46:44.849Z,99.90
2022-10-30T19:49:21.307Z,99.90
2022-10-30T19:51:50.266Z,99.90
2022-10-30T19:54:18.293Z,99.90
2022-10-30T19:56:48.400Z,99.90
2022-10-30T19:59:18.566Z,99.90
2022-10-30T20:01:45.709Z,99.90
2022-10-30T20:04:15.211Z,99.90
2022-10-30T20:06:43.546Z,99.90
2022-10-30T20:09:13.471Z,99.90
2022-10-30T20:11:40.589Z,99.90
2022-10-30T20:14:08.015Z,99.90
2022-10-30T20:16:35.006Z,99.90
2022-10-30T20:19:19.772Z,99.90
2022-10-30T20:21:48.715Z,99.90
2022-10-30T20:24:19.231Z,99.90
2022-10-30T20:26:46.442Z,99.90
2022-10-30T20:29:17.006Z,99.90
2022-10-30T20:31:43.846Z,99.90
2022-10-30T20:34:17.111Z,99.90
2022-10-30T20:36:46.164Z,99.90
2022-10-30T20:39:13.780Z,99.90
2022-10-30T20:41:42.679Z,99.90
2022-10-30T20:44:12.833Z,99.90
2022-10-30T20:46:39.919Z,99.90
2022-10-30T20:49:17.899Z,99.90
2022-10-30T20:51:47.956Z,99.90
2022-10-30T20:54:18.005Z,99.90
2022-10-30T20:56:44.936Z,99.90
2022-10-30T20:59:14.968Z,99.90
2022-10-30T21:01:45.145Z,99.90
2022-10-30T21:04:13.354Z,99.90
2022-10-30T21:06:43.351Z,99.90
2022-10-30T21:09:11.330Z,99.90
2022-10-30T21:11:41.287Z,99.90
2022-10-30T21:14:08.279Z,99.90
2022-10-30T21:16:37.276Z,99.90
2022-10-30T21:19:08.207Z,99.90
2022-10-30T21:21:38.258Z,99.90
2022-10-30T21:24:07.419Z,99.90
2022-10-30T21:26:36.571Z,99.90
2022-10-30T21:29:05.403Z,99.90
2022-10-30T21:31:35.446Z,99.90
2022-10-30T21:34:03.491Z,99.90
2022-10-30T21:36:33.501Z,99.90
2022-10-30T21:39:00.536Z,99.90
2022-10-30T21:41:27.644Z,99.90
2022-10-30T21:43:58.141Z,99.90
2022-10-30T21:46:28.423Z,99.90
2022-10-30T21:49:04.553Z,99.90
2022-10-30T21:51:33.323Z,99.90
2022-10-30T21:54:03.312Z,99.90
2022-10-30T21:56:33.477Z,99.90
2022-10-30T21:59:07.267Z,99.90
2022-10-30T22:01:39.376Z,99.90
2022-10-30T22:04:08.933Z,99.90
2022-10-30T22:06:46.037Z,99.90
2022-10-30T22:09:16.000Z,99.90
2022-10-30T22:11:43.156Z,99.90
2022-10-30T22:14:11.127Z,99.90
2022-10-30T22:16:41.110Z,99.90
2022-10-30T22:19:10.471Z,99.90
2022-10-30T22:21:40.467Z,99.90
2022-10-30T22:24:07.784Z,99.90
2022-10-30T22:26:35.725Z,99.90
2022-10-30T22:29:05.756Z,99.90
2022-10-30T22:31:32.645Z,99.90
2022-10-30T22:34:01.228Z,99.90
2022-10-30T22:36:35.533Z,99.90
2022-10-30T22:39:05.894Z,99.90
2022-10-30T22:41:38.129Z,99.90
2022-10-30T22:44:11.008Z,99.90
2022-10-30T22:46:41.155Z,99.90
2022-10-30T22:49:11.066Z,99.90
2022-10-30T22:51:41.134Z,99.90
2022-10-30T22:54:14.075Z,99.90
2022-10-30T22:56:42.851Z,99.90
2022-10-30T22:59:13.714Z,99.90
2022-10-30T23:01:42.774Z,99.90
2022-10-30T23:04:14.115Z,99.90
2022-10-30T23:06:57.394Z,99.90
2022-10-30T23:09:28.609Z,99.90
2022-10-30T23:11:58.675Z,99.90
2022-10-30T23:14:31.517Z,99.90
2022-10-30T23:16:58.452Z,99.90
2022-10-30T23:19:26.843Z,99.90
2022-10-30T23:21:59.874Z,99.90
2022-10-30T23:24:30.072Z,99.90
2022-10-30T23:27:02.972Z,99.90
2022-10-30T23:29:29.999Z,99.90
2022-10-30T23:32:00.331Z,99.90
2022-10-30T23:34:46.296Z,99.90
2022-10-30T23:37:16.568Z,99.90
2022-10-30T23:39:46.467Z,99.90
2022-10-30T23:42:15.328Z,99.90
2022-10-30T23:44:45.365Z,99.90
2022-10-30T23:47:14.295Z,99.90
2022-10-30T23:49:42.163Z,99.90
2022-10-30T23:52:12.108Z,99.90
2022-10-30T23:54:40.259Z,99.90
2022-10-30T23:57:10.324Z,99.90
2022-10-30T23:59:39.337Z,99.90
